Terminal Aerodrome Forecast
Issued by NWS Wilmington, OH

Home | Current Version | Previous Version | Text Only | Print | Product List | Glossary On
Versions: 1 2 3 4 5 6 7 8 9 10 11 12 13 14 15 16
000
FTUS41 KILN 292210 AAA
TAFCMH
TAF AMD
KCMH 292210Z 2922/3018 15010G15KT P6SM TS SCT050CB BKN200
     FM292300 20010KT P6SM VCTS BKN040CB
      TEMPO 2923/3001 VRB12G20KT 5SM -TSRA BKN035CB
     FM300300 21002KT P6SM BKN050
     FM300600 32003KT P6SM SKC
     FM301500 30008KT P6SM FEW050=

USA.gov is the U.S. government's official web portal to all federal, state and local government web resources and services.